This is the latest recevied weather packets stored in our database for station/object KS5S. If no packets are shown the sender has not sent any weather packets the latest 10 day(s).
| Time | Temp. | Humidity | Pressure | Rain* | Wind** | Luminosity | Snow |
|---|---|---|---|---|---|---|---|
| 1777772368 | 20° C | 62% | 1017.2 hPa | 0 mm | - | 0 W/m² | - |
| 1777772065 | 20.56° C | 58% | 1017.1 hPa | 0 mm | - | 0 W/m² | - |
| 1777771762 | 20.56° C | 57% | 1017.3 hPa | 0 mm | - | 0 W/m² | - |
| 1777771460 | 21.11° C | 54% | 1017.3 hPa | 0 mm | - | 1 W/m² | - |
| 1777771155 | 21.11° C | 52% | 1017 hPa | 0 mm | - | 1 W/m² | - |
| 1777770852 | 21.67° C | 54% | 1017 hPa | 0 mm | - | 3 W/m² | - |
| 1777770550 | 21.67° C | 52% | 1017.1 hPa | 0 mm | - | 5 W/m² | - |
| 1777770247 | 22.22° C | 51% | 1017 hPa | 0 mm | - | 9 W/m² | - |
| 1777769943 | 23.33° C | 45% | 1016.9 hPa | 0 mm | - | 13 W/m² | - |
| 1777769641 | 23.89° C | 44% | 1017.1 hPa | 0 mm | - | 18 W/m² | - |
| 1777769337 | 25° C | 41% | 1017.2 hPa | 0 mm | - | 23 W/m² | - |
| 1777769034 | 25° C | 42% | 1017.2 hPa | 0 mm | - | 28 W/m² | - |
| 1777768732 | 25° C | 41% | 1017 hPa | 0 mm | - | 34 W/m² | - |
| 1777768428 | 25.56° C | 41% | 1017 hPa | 0 mm | - | 45 W/m² | - |
| 1777768125 | 25.56° C | 40% | 1017 hPa | 0 mm | - | 56 W/m² | - |
| 1777767823 | 25.56° C | 40% | 1017.1 hPa | 0 mm | - | 68 W/m² | - |
| 1777767519 | 25° C | 40% | 1016.8 hPa | 0 mm | - | 78 W/m² | - |
| 1777767215 | 25° C | 38% | 1016.9 hPa | 0 mm | - | 91 W/m² | - |
| 1777766913 | 25° C | 39% | 1016.9 hPa | 0 mm | - | 102 W/m² | - |
| 1777766610 | 25° C | 37% | 1016.8 hPa | 0 mm | - | 115 W/m² | - |
| 1777766307 | 25° C | 38% | 1016.9 hPa | 0 mm | - | 128 W/m² | - |
| 1777766004 | 25.56° C | 38% | 1016.8 hPa | 0 mm | - | 141 W/m² | - |
| 1777765701 | 25.56° C | 35% | 1016.9 hPa | 0 mm | - | 155 W/m² | - |
| 1777765398 | 25° C | 40% | 1017 hPa | 0 mm | - | 169 W/m² | - |
| 1777765094 | 25° C | 37% | 1016.8 hPa | 0 mm | - | 184 W/m² | - |
* Rain latest hour (hover to see other rain measurements)
** Current wind speed in m/s (hover to see current wind gust speed)